createdAt,value
2022-11-28T00:01:34.327Z,3.51
2022-11-28T00:04:02.723Z,3.51
2022-11-28T00:06:30.802Z,3.51
2022-11-28T00:08:59.396Z,3.52
2022-11-28T00:11:27.689Z,3.52
2022-11-28T00:13:55.927Z,3.49
2022-11-28T00:16:24.530Z,3.46
2022-11-28T00:18:54.538Z,3.44
2022-11-28T00:21:24.824Z,3.42
2022-11-28T00:23:52.720Z,3.40
2022-11-28T00:26:22.255Z,3.37
2022-11-28T00:28:49.935Z,3.36
2022-11-28T00:31:21.930Z,3.35
2022-11-28T00:33:50.587Z,3.38
2022-11-28T00:36:18.744Z,3.42
2022-11-28T00:38:46.562Z,3.46
2022-11-28T00:41:15.904Z,3.48
2022-11-28T00:43:44.374Z,3.48
2022-11-28T00:46:13.308Z,3.47
2022-11-28T00:48:41.237Z,3.47
2022-11-28T00:51:12.461Z,3.46
2022-11-28T00:53:42.560Z,3.45
2022-11-28T00:56:11.776Z,3.43
2022-11-28T00:58:40.043Z,3.39
2022-11-28T01:01:28.143Z,3.34
2022-11-28T01:03:57.263Z,3.28
2022-11-28T01:06:30.452Z,3.24
2022-11-28T01:08:59.337Z,3.22
2022-11-28T01:11:27.575Z,3.21
2022-11-28T01:13:56.227Z,3.23
2022-11-28T01:16:24.000Z,3.26
2022-11-28T01:18:51.743Z,3.28
2022-11-28T01:21:20.231Z,3.31
2022-11-28T01:23:48.509Z,3.33
2022-11-28T01:26:17.795Z,3.34
2022-11-28T01:28:46.094Z,3.32
2022-11-28T01:31:15.495Z,3.32
2022-11-28T01:33:43.472Z,3.32
2022-11-28T01:36:12.118Z,3.33
2022-11-28T01:38:39.988Z,3.36
2022-11-28T01:41:08.438Z,3.40
2022-11-28T01:43:36.506Z,3.45
2022-11-28T01:46:05.020Z,3.48
2022-11-28T01:48:34.982Z,3.47
2022-11-28T01:51:06.534Z,3.45
2022-11-28T01:53:36.578Z,3.44
2022-11-28T01:56:14.132Z,3.43
2022-11-28T01:58:44.381Z,3.41
2022-11-28T02:01:12.988Z,3.40
2022-11-28T02:03:45.381Z,3.40
2022-11-28T02:06:14.198Z,3.41
2022-11-28T02:08:42.270Z,3.37
2022-11-28T02:11:13.119Z,3.33
2022-11-28T02:13:49.843Z,3.30
2022-11-28T02:16:20.451Z,3.29
2022-11-28T02:18:51.245Z,3.24
2022-11-28T02:21:25.107Z,3.21
2022-11-28T02:24:02.337Z,3.20
2022-11-28T02:26:30.164Z,3.21
2022-11-28T02:28:57.988Z,3.21
2022-11-28T02:31:28.991Z,3.24
2022-11-28T02:34:10.039Z,3.26
2022-11-28T02:37:00.700Z,3.27
2022-11-28T02:39:35.341Z,3.29
2022-11-28T02:42:15.760Z,3.30
2022-11-28T02:44:47.820Z,3.31
2022-11-28T02:47:22.202Z,3.31
2022-11-28T02:49:55.978Z,3.30
2022-11-28T02:52:34.643Z,3.30
2022-11-28T02:55:03.539Z,3.25
2022-11-28T02:57:36.366Z,3.19
2022-11-28T03:00:22.883Z,3.14
2022-11-28T03:03:10.849Z,3.10
2022-11-28T03:05:47.773Z,3.06
2022-11-28T03:08:15.426Z,3.04
2022-11-28T03:11:01.295Z,3.04
2022-11-28T03:13:44.429Z,3.06
2022-11-28T03:16:25.918Z,3.07
2022-11-28T03:19:04.762Z,3.10
2022-11-28T03:21:35.543Z,3.10
2022-11-28T03:24:06.531Z,3.09
2022-11-28T03:26:44.791Z,3.09
2022-11-28T03:29:16.791Z,3.09
2022-11-28T03:32:03.560Z,3.07
2022-11-28T03:34:32.889Z,3.04
2022-11-28T03:37:03.191Z,3.03
2022-11-28T03:39:34.205Z,3.03
2022-11-28T03:42:05.822Z,3.02
2022-11-28T03:44:38.355Z,2.99
2022-11-28T03:47:06.650Z,2.96
2022-11-28T03:49:36.925Z,2.95
2022-11-28T03:52:06.109Z,2.94
2022-11-28T03:54:53.366Z,2.92
2022-11-28T03:57:21.031Z,2.93
2022-11-28T03:59:53.163Z,2.95
2022-11-28T04:02:27.012Z,2.96
2022-11-28T04:05:13.518Z,2.98
2022-11-28T04:07:41.313Z,2.98
2022-11-28T04:10:27.226Z,2.95
2022-11-28T04:12:58.899Z,2.93
2022-11-28T04:15:29.690Z,2.94
2022-11-28T04:18:03.558Z,2.95
2022-11-28T04:20:54.532Z,2.94
2022-11-28T04:23:22.558Z,2.93
2022-11-28T04:25:57.824Z,2.92
2022-11-28T04:28:27.323Z,2.91
2022-11-28T04:30:56.663Z,2.88
2022-11-28T04:33:25.902Z,2.84
2022-11-28T04:35:54.748Z,2.82
2022-11-28T04:38:24.038Z,2.78
2022-11-28T04:40:53.737Z,2.75
2022-11-28T04:43:25.722Z,2.74
2022-11-28T04:45:56.224Z,2.73
2022-11-28T04:48:24.082Z,2.72
2022-11-28T04:51:09.605Z,2.73
2022-11-28T04:53:43.749Z,2.74
2022-11-28T04:56:20.146Z,2.75
2022-11-28T04:58:49.631Z,2.77
2022-11-28T05:01:29.076Z,2.79
2022-11-28T05:03:57.138Z,2.82
2022-11-28T05:06:26.761Z,2.86
2022-11-28T05:08:54.511Z,2.89
2022-11-28T05:11:22.653Z,2.92
2022-11-28T05:13:50.446Z,2.94
2022-11-28T05:16:18.638Z,2.95
2022-11-28T05:18:46.355Z,2.94
2022-11-28T05:21:14.320Z,2.91
2022-11-28T05:23:43.578Z,2.86
2022-11-28T05:26:12.738Z,2.81
2022-11-28T05:28:42.813Z,2.75
2022-11-28T05:31:10.749Z,2.69
2022-11-28T05:33:39.012Z,2.68
2022-11-28T05:36:12.561Z,2.68
2022-11-28T05:38:42.119Z,2.71
2022-11-28T05:41:10.614Z,2.74
2022-11-28T05:43:38.362Z,2.76
2022-11-28T05:46:06.856Z,2.80
2022-11-28T05:48:35.529Z,2.83
2022-11-28T05:51:07.199Z,2.85
2022-11-28T05:53:35.012Z,2.90
2022-11-28T05:56:09.382Z,2.94
2022-11-28T05:58:37.250Z,2.97
2022-11-28T06:01:12.244Z,2.98
2022-11-28T06:03:40.271Z,2.98
2022-11-28T06:06:12.620Z,2.95
2022-11-28T06:08:41.052Z,2.96
2022-11-28T06:11:09.005Z,2.97
2022-11-28T06:13:36.851Z,2.98
2022-11-28T06:16:08.801Z,2.98
2022-11-28T06:18:36.790Z,3.00
2022-11-28T06:21:05.339Z,2.98
2022-11-28T06:23:33.176Z,2.95
2022-11-28T06:26:08.328Z,2.94
2022-11-28T06:28:36.348Z,2.88
2022-11-28T06:31:04.269Z,2.84
2022-11-28T06:33:32.020Z,2.84
2022-11-28T06:36:01.409Z,2.87
2022-11-28T06:38:29.261Z,2.90
2022-11-28T06:40:58.435Z,2.92
2022-11-28T06:43:26.700Z,2.93
2022-11-28T06:45:54.437Z,2.96
2022-11-28T06:48:22.237Z,2.96
2022-11-28T06:50:50.453Z,2.97
2022-11-28T06:53:18.467Z,3.00
2022-11-28T06:55:46.614Z,3.00
2022-11-28T06:58:14.308Z,2.98
2022-11-28T07:00:42.232Z,2.97
2022-11-28T07:03:10.455Z,2.99
2022-11-28T07:05:38.691Z,3.03
2022-11-28T07:08:06.816Z,3.06
2022-11-28T07:10:34.610Z,3.07
2022-11-28T07:13:05.399Z,3.08
2022-11-28T07:15:33.546Z,3.08
2022-11-28T07:18:01.289Z,3.07
2022-11-28T07:20:29.091Z,3.05
2022-11-28T07:22:56.871Z,3.06
2022-11-28T07:25:24.566Z,3.05
2022-11-28T07:27:52.433Z,3.07
2022-11-28T07:30:20.301Z,3.10
2022-11-28T07:32:48.039Z,3.13
2022-11-28T07:35:15.913Z,3.15
2022-11-28T07:37:43.687Z,3.17
2022-11-28T07:40:13.595Z,3.19
2022-11-28T07:42:41.394Z,3.22
2022-11-28T07:45:09.633Z,3.27
2022-11-28T07:47:37.496Z,3.32
2022-11-28T07:50:05.729Z,3.35
2022-11-28T07:52:33.579Z,3.36
2022-11-28T07:55:01.531Z,3.35
2022-11-28T07:57:30.815Z,3.32
2022-11-28T07:59:58.646Z,3.31
2022-11-28T08:02:27.352Z,3.31
2022-11-28T08:04:55.732Z,3.31
2022-11-28T08:07:23.764Z,3.33
2022-11-28T08:09:51.572Z,3.34
2022-11-28T08:12:19.675Z,3.37
2022-11-28T08:14:47.663Z,3.40
2022-11-28T08:17:15.353Z,3.43
2022-11-28T08:19:43.093Z,3.46
2022-11-28T08:22:10.767Z,3.52
2022-11-28T08:24:38.517Z,3.58
2022-11-28T08:27:06.225Z,3.61
2022-11-28T08:29:33.944Z,3.67
2022-11-28T08:32:01.896Z,3.76
2022-11-28T08:34:29.774Z,3.84
2022-11-28T08:36:57.513Z,3.92
2022-11-28T08:39:25.657Z,3.99
2022-11-28T08:41:57.374Z,4.08
2022-11-28T08:44:26.467Z,4.16
2022-11-28T08:46:55.129Z,4.23
2022-11-28T08:49:22.875Z,4.28
2022-11-28T08:51:50.571Z,4.34
2022-11-28T08:54:18.203Z,4.41
2022-11-28T08:56:47.297Z,4.52
2022-11-28T08:59:15.181Z,4.59
2022-11-28T09:01:43.155Z,4.65
2022-11-28T09:04:11.047Z,4.70
2022-11-28T09:06:39.484Z,4.73
2022-11-28T09:09:08.227Z,4.74
2022-11-28T09:11:36.223Z,4.74
2022-11-28T09:14:03.934Z,4.73
2022-11-28T09:16:31.742Z,4.73
2022-11-28T09:18:59.585Z,4.74
2022-11-28T09:21:27.400Z,4.76
2022-11-28T09:23:56.267Z,4.81
2022-11-28T09:26:25.431Z,4.85
2022-11-28T09:28:53.752Z,4.87
2022-11-28T09:31:21.854Z,4.88
2022-11-28T09:33:49.769Z,4.89
2022-11-28T09:36:18.940Z,4.89
2022-11-28T09:38:46.718Z,4.91
2022-11-28T09:41:20.595Z,4.93
2022-11-28T09:43:54.568Z,4.94
2022-11-28T09:46:28.440Z,4.97
2022-11-28T09:48:58.254Z,4.98
2022-11-28T09:51:35.551Z,5.01
2022-11-28T09:54:03.257Z,5.03
2022-11-28T09:56:30.943Z,5.05
2022-11-28T09:59:03.024Z,5.07
2022-11-28T10:01:34.497Z,5.09
2022-11-28T10:04:05.519Z,5.11
2022-11-28T10:06:52.118Z,5.14
2022-11-28T10:09:33.265Z,5.19
2022-11-28T10:12:06.794Z,5.24
2022-11-28T10:14:46.927Z,5.31
2022-11-28T10:17:29.959Z,5.35
2022-11-28T10:20:02.658Z,5.38
2022-11-28T10:22:39.819Z,5.41
2022-11-28T10:25:14.283Z,5.46
2022-11-28T10:27:42.617Z,5.50
2022-11-28T10:30:22.663Z,5.53
2022-11-28T10:32:53.757Z,5.56
2022-11-28T10:35:26.749Z,5.59
2022-11-28T10:37:56.339Z,5.62
2022-11-28T10:40:39.563Z,5.66
2022-11-28T10:43:16.311Z,5.70
2022-11-28T10:46:00.787Z,5.73
2022-11-28T10:48:43.773Z,5.76
2022-11-28T10:51:30.875Z,5.79
2022-11-28T10:54:16.492Z,5.82
2022-11-28T10:56:50.208Z,5.85
2022-11-28T10:59:23.827Z,5.88
2022-11-28T11:01:52.416Z,5.90
2022-11-28T11:04:22.593Z,5.93
2022-11-28T11:07:08.241Z,5.95
2022-11-28T11:09:39.080Z,5.98
2022-11-28T11:12:12.156Z,6.00
2022-11-28T11:14:40.010Z,6.03
2022-11-28T11:17:07.694Z,6.07
2022-11-28T11:19:36.616Z,6.09
2022-11-28T11:22:22.131Z,6.11
2022-11-28T11:25:24.816Z,6.16
2022-11-28T11:27:54.483Z,6.22
2022-11-28T11:30:27.118Z,6.26
2022-11-28T11:32:56.371Z,6.30
2022-11-28T11:35:25.624Z,6.35
2022-11-28T11:37:53.739Z,6.38
2022-11-28T11:40:25.262Z,6.42
2022-11-28T11:42:55.593Z,6.45
2022-11-28T11:45:24.227Z,6.48
2022-11-28T11:47:51.922Z,6.50
2022-11-28T11:50:21.568Z,6.52
2022-11-28T11:53:01.351Z,6.53
2022-11-28T11:55:30.434Z,6.54
2022-11-28T11:58:05.248Z,6.56
2022-11-28T12:00:39.091Z,6.56
2022-11-28T12:03:14.260Z,6.57
2022-11-28T12:06:12.864Z,6.57
2022-11-28T12:08:41.062Z,6.57
2022-11-28T12:11:20.047Z,6.56
2022-11-28T12:13:48.912Z,6.56
2022-11-28T12:16:34.781Z,6.54
2022-11-28T12:19:02.577Z,6.53
2022-11-28T12:21:50.582Z,6.49
2022-11-28T12:24:25.513Z,6.46
2022-11-28T12:26:56.380Z,6.46
2022-11-28T12:29:33.246Z,6.45
2022-11-28T12:32:07.109Z,6.45
2022-11-28T12:34:53.127Z,6.44
2022-11-28T12:38:09.155Z,6.43
2022-11-28T12:40:46.024Z,6.41
2022-11-28T12:43:19.971Z,6.39
2022-11-28T12:46:05.500Z,6.37
2022-11-28T12:48:50.188Z,6.32
2022-11-28T12:51:20.953Z,6.30
2022-11-28T12:53:56.224Z,6.28
2022-11-28T12:56:23.897Z,6.25
2022-11-28T12:58:55.620Z,6.22
2022-11-28T13:01:23.397Z,6.20
2022-11-28T13:03:51.146Z,6.17
2022-11-28T13:06:36.811Z,6.15
2022-11-28T13:09:18.795Z,6.14
2022-11-28T13:12:01.521Z,6.12
2022-11-28T13:14:36.388Z,6.10
2022-11-28T13:17:13.556Z,6.07
2022-11-28T13:20:00.092Z,6.05
2022-11-28T13:22:34.189Z,6.00
2022-11-28T13:25:16.956Z,5.96
2022-11-28T13:27:49.742Z,5.93
2022-11-28T13:30:25.541Z,5.90
2022-11-28T13:32:59.524Z,5.88
2022-11-28T13:35:28.570Z,5.85
2022-11-28T13:41:05.790Z,5.81
2022-11-28T13:43:46.925Z,5.78
2022-11-28T13:46:15.032Z,5.76
2022-11-28T13:51:33.075Z,5.70
2022-11-28T13:54:23.059Z,5.68
2022-11-28T13:57:09.763Z,5.66
2022-11-28T13:59:38.087Z,5.63
2022-11-28T14:02:18.798Z,5.61
2022-11-28T14:04:48.215Z,5.59
2022-11-28T14:07:22.501Z,5.55
2022-11-28T14:09:52.231Z,5.52
2022-11-28T14:12:34.242Z,5.49
2022-11-28T14:15:01.990Z,5.47
2022-11-28T14:17:33.263Z,5.43
2022-11-28T14:20:01.026Z,5.40
2022-11-28T14:22:49.037Z,5.38
2022-11-28T14:25:31.652Z,5.33
2022-11-28T14:28:04.417Z,5.29
2022-11-28T14:30:40.000Z,5.26
2022-11-28T14:33:15.932Z,5.23
2022-11-28T14:35:53.074Z,5.21
2022-11-28T14:38:35.865Z,5.18
2022-11-28T14:41:09.340Z,5.15
2022-11-28T14:43:37.121Z,5.13
2022-11-28T14:46:24.080Z,5.11
2022-11-28T14:48:57.979Z,5.08
2022-11-28T14:51:44.232Z,5.06
2022-11-28T14:54:22.034Z,5.04
2022-11-28T14:56:52.963Z,5.01
2022-11-28T14:59:29.148Z,4.99
2022-11-28T15:02:06.228Z,4.96
2022-11-28T15:04:52.562Z,4.94
2022-11-28T15:07:29.546Z,4.91
2022-11-28T15:10:07.457Z,4.89
2022-11-28T15:12:54.215Z,4.87
2022-11-28T15:15:22.755Z,4.85
2022-11-28T15:17:51.604Z,4.82
2022-11-28T15:20:23.122Z,4.78
2022-11-28T15:22:50.980Z,4.76
2022-11-28T15:25:19.967Z,4.75
2022-11-28T15:27:48.059Z,4.74
2022-11-28T15:30:20.043Z,4.74
2022-11-28T15:32:48.111Z,4.74
2022-11-28T15:35:17.754Z,4.73
2022-11-28T15:37:50.433Z,4.71
2022-11-28T15:40:21.253Z,4.70
2022-11-28T15:42:49.616Z,4.70
2022-11-28T15:45:20.370Z,4.69
2022-11-28T15:47:49.269Z,4.65
2022-11-28T15:50:20.060Z,4.64
2022-11-28T15:52:59.855Z,4.64
2022-11-28T15:55:32.200Z,4.63
2022-11-28T15:58:10.250Z,4.61
2022-11-28T16:00:39.653Z,4.58
2022-11-28T16:03:10.498Z,4.55
2022-11-28T16:05:39.026Z,4.52
2022-11-28T16:08:17.148Z,4.49
2022-11-28T16:10:45.624Z,4.46
2022-11-28T16:13:16.292Z,4.43
2022-11-28T16:15:51.657Z,4.42
2022-11-28T16:18:19.759Z,4.40
2022-11-28T16:20:48.141Z,4.40
2022-11-28T16:23:35.981Z,4.38
2022-11-28T16:26:05.364Z,4.36
2022-11-28T16:28:34.768Z,4.35
2022-11-28T16:31:02.682Z,4.34
2022-11-28T16:33:41.039Z,4.33
2022-11-28T16:36:08.814Z,4.31
2022-11-28T16:38:37.914Z,4.29
2022-11-28T16:41:05.827Z,4.26
2022-11-28T16:43:38.410Z,4.25
2022-11-28T16:46:08.684Z,4.25
2022-11-28T16:48:37.807Z,4.25
2022-11-28T16:51:11.704Z,4.26
2022-11-28T16:53:46.469Z,4.27
2022-11-28T16:56:29.806Z,4.25
2022-11-28T16:59:14.231Z,4.24
2022-11-28T17:01:49.248Z,4.23
2022-11-28T17:04:20.438Z,4.22
2022-11-28T17:06:48.408Z,4.20
2022-11-28T17:09:16.320Z,4.17
2022-11-28T17:11:45.544Z,4.13
2022-11-28T17:14:14.126Z,4.08
2022-11-28T17:16:42.446Z,4.01
2022-11-28T17:19:10.418Z,3.97
2022-11-28T17:21:40.111Z,3.94
2022-11-28T17:24:14.975Z,3.92
2022-11-28T17:26:42.818Z,3.92
2022-11-28T17:29:11.814Z,3.92
2022-11-28T17:31:42.719Z,3.92
2022-11-28T17:34:33.589Z,3.93
2022-11-28T17:37:02.087Z,3.93
2022-11-28T17:39:29.881Z,3.93
2022-11-28T17:41:59.061Z,3.93
2022-11-28T17:44:36.341Z,3.92
2022-11-28T17:47:04.336Z,3.91
2022-11-28T17:49:32.282Z,3.88
2022-11-28T17:51:59.943Z,3.84
2022-11-28T17:54:27.844Z,3.81
2022-11-28T17:56:55.708Z,3.76
2022-11-28T17:59:23.937Z,3.71
2022-11-28T18:01:51.894Z,3.67
2022-11-28T18:04:19.740Z,3.64
2022-11-28T18:06:48.471Z,3.60
2022-11-28T18:09:16.262Z,3.57
2022-11-28T18:11:46.300Z,3.53
2022-11-28T18:14:14.176Z,3.51
2022-11-28T18:16:43.893Z,3.49
2022-11-28T18:19:11.781Z,3.48
2022-11-28T18:21:39.530Z,3.47
2022-11-28T18:24:07.511Z,3.47
2022-11-28T18:26:36.644Z,3.49
2022-11-28T18:29:04.644Z,3.52
2022-11-28T18:31:34.251Z,3.55
2022-11-28T18:34:03.500Z,3.58
2022-11-28T18:36:32.310Z,3.60
2022-11-28T18:39:01.718Z,3.63
2022-11-28T18:41:29.908Z,3.66
2022-11-28T18:43:59.244Z,3.68
2022-11-28T18:46:27.649Z,3.67
2022-11-28T18:48:55.603Z,3.65
2022-11-28T18:51:27.759Z,3.63
2022-11-28T18:53:56.214Z,3.61
2022-11-28T18:56:24.976Z,3.59
2022-11-28T18:58:53.630Z,3.58
2022-11-28T19:01:28.314Z,3.55
2022-11-28T19:03:58.148Z,3.49
2022-11-28T19:06:26.378Z,3.46
2022-11-28T19:08:58.766Z,3.44
2022-11-28T19:11:28.423Z,3.43
2022-11-28T19:13:56.688Z,3.42
2022-11-28T19:16:26.169Z,3.41
2022-11-28T19:18:54.077Z,3.40
2022-11-28T19:21:23.379Z,3.38
2022-11-28T19:23:51.620Z,3.37
2022-11-28T19:26:20.567Z,3.36
2022-11-28T19:28:48.366Z,3.36
2022-11-28T19:31:20.526Z,3.37
2022-11-28T19:34:00.871Z,3.40
2022-11-28T19:36:30.296Z,3.43
2022-11-28T19:38:59.253Z,3.46
2022-11-28T19:41:27.567Z,3.49
2022-11-28T19:43:55.897Z,3.50
2022-11-28T19:46:23.763Z,3.49
2022-11-28T19:48:51.871Z,3.48
2022-11-28T19:51:20.536Z,3.46
2022-11-28T19:53:48.555Z,3.43
2022-11-28T19:56:17.551Z,3.39
2022-11-28T19:58:46.311Z,3.35
2022-11-28T20:01:15.434Z,3.30
2022-11-28T20:03:44.093Z,3.26
2022-11-28T20:06:13.557Z,3.20
2022-11-28T20:08:41.554Z,3.15
2022-11-28T20:11:17.086Z,3.09
2022-11-28T20:13:45.394Z,3.03
2022-11-28T20:16:14.321Z,2.97
2022-11-28T20:18:43.158Z,2.91
2022-11-28T20:21:15.182Z,2.84
2022-11-28T20:23:42.901Z,2.78
2022-11-28T20:26:11.104Z,2.70
2022-11-28T20:28:39.640Z,2.63
2022-11-28T20:31:15.583Z,2.57
2022-11-28T20:33:43.480Z,2.51
2022-11-28T20:36:15.709Z,2.46
2022-11-28T20:38:43.549Z,2.42
2022-11-28T20:41:12.239Z,2.40
2022-11-28T20:43:40.792Z,2.38
2022-11-28T20:46:13.416Z,2.35
2022-11-28T20:48:42.293Z,2.32
2022-11-28T20:51:20.520Z,2.28
2022-11-28T20:53:48.980Z,2.24
2022-11-28T20:56:20.981Z,2.18
2022-11-28T20:58:49.208Z,2.13
2022-11-28T21:01:18.624Z,2.08
2022-11-28T21:03:46.591Z,2.03
2022-11-28T21:06:14.269Z,1.98
2022-11-28T21:08:42.272Z,1.91
2022-11-28T21:11:25.271Z,1.83
2022-11-28T21:14:00.843Z,1.75
2022-11-28T21:16:31.321Z,1.67
2022-11-28T21:19:01.951Z,1.63
2022-11-28T21:21:31.077Z,1.61
2022-11-28T21:24:00.635Z,1.59
2022-11-28T21:26:30.557Z,1.59
2022-11-28T21:29:01.012Z,1.59
2022-11-28T21:31:31.256Z,1.57
2022-11-28T21:33:59.778Z,1.53
2022-11-28T21:36:28.893Z,1.50
2022-11-28T21:38:58.155Z,1.46
2022-11-28T21:41:30.530Z,1.44
2022-11-28T21:43:59.119Z,1.38
2022-11-28T21:46:27.382Z,1.31
2022-11-28T21:48:55.108Z,1.23
2022-11-28T21:51:24.200Z,1.15
2022-11-28T21:53:52.369Z,1.08
2022-11-28T21:56:22.038Z,1.04
2022-11-28T21:58:49.871Z,1.03
2022-11-28T22:01:18.101Z,1.04
2022-11-28T22:03:45.857Z,1.05
2022-11-28T22:06:21.917Z,1.04
2022-11-28T22:08:50.235Z,1.01
2022-11-28T22:11:18.920Z,0.97
2022-11-28T22:13:47.257Z,0.93
2022-11-28T22:16:19.478Z,0.88
2022-11-28T22:18:47.735Z,0.82
2022-11-28T22:24:04.448Z,0.69
2022-11-28T22:26:32.349Z,0.63
2022-11-28T22:29:01.157Z,0.56
2022-11-28T22:31:29.220Z,0.51
2022-11-28T22:33:57.336Z,0.45
2022-11-28T22:36:25.090Z,0.40
2022-11-28T22:38:57.115Z,0.36
2022-11-28T22:41:28.812Z,0.33
2022-11-28T22:43:59.600Z,0.29
2022-11-28T22:46:28.029Z,0.23
2022-11-28T22:48:55.874Z,0.17
2022-11-28T22:51:25.025Z,0.11
2022-11-28T22:53:56.584Z,0.05
2022-11-28T22:56:24.412Z,-0.02
2022-11-28T22:58:52.821Z,-0.07
2022-11-28T23:01:31.059Z,-0.10
2022-11-28T23:03:59.507Z,-0.11
2022-11-28T23:06:28.833Z,-0.11
2022-11-28T23:08:57.630Z,-0.11
2022-11-28T23:11:26.915Z,-0.14
2022-11-28T23:13:55.315Z,-0.18
2022-11-28T23:16:27.445Z,-0.20
2022-11-28T23:18:56.877Z,-0.21
2022-11-28T23:21:25.908Z,-0.20
2022-11-28T23:23:53.850Z,-0.21
2022-11-28T23:26:22.750Z,-0.21
2022-11-28T23:28:51.189Z,-0.20
2022-11-28T23:31:20.895Z,-0.20
2022-11-28T23:33:49.152Z,-0.20
2022-11-28T23:36:18.767Z,-0.23
2022-11-28T23:38:47.761Z,-0.29
2022-11-28T23:41:15.561Z,-0.37
2022-11-28T23:43:43.288Z,-0.44
2022-11-28T23:46:12.000Z,-0.50
2022-11-28T23:48:40.074Z,-0.56
2022-11-28T23:51:08.495Z,-0.61
2022-11-28T23:53:36.579Z,-0.67
2022-11-28T23:56:15.118Z,-0.70
2022-11-28T23:58:43.567Z,-0.73
